sensor_id;sensor_type;location;lat;lon;timestamp;P1;durP1;ratioP1;P2;durP2;ratioP2
26040;SDS011;13816;53.628;9.950;2024-02-26T00:00:30;8.40;;;6.70;;
26040;SDS011;13816;53.628;9.950;2024-02-26T00:02:58;8.63;;;7.20;;
26040;SDS011;13816;53.628;9.950;2024-02-26T00:05:26;8.00;;;7.07;;
26040;SDS011;13816;53.628;9.950;2024-02-26T00:07:53;8.30;;;7.40;;
26040;SDS011;13816;53.628;9.950;2024-02-26T00:10:21;11.17;;;6.90;;
26040;SDS011;13816;53.628;9.950;2024-02-26T00:12:48;8.60;;;7.80;;
26040;SDS011;13816;53.628;9.950;2024-02-26T00:15:16;8.93;;;7.60;;
26040;SDS011;13816;53.628;9.950;2024-02-26T00:17:43;8.83;;;7.80;;
26040;SDS011;13816;53.628;9.950;2024-02-26T00:20:11;8.87;;;7.53;;
26040;SDS011;13816;53.628;9.950;2024-02-26T00:22:38;9.00;;;7.30;;
26040;SDS011;13816;53.628;9.950;2024-02-26T00:25:06;8.67;;;7.77;;
26040;SDS011;13816;53.628;9.950;2024-02-26T00:27:33;9.13;;;7.63;;
26040;SDS011;13816;53.628;9.950;2024-02-26T00:30:01;8.10;;;7.30;;
26040;SDS011;13816;53.628;9.950;2024-02-26T00:32:28;10.57;;;8.20;;
26040;SDS011;13816;53.628;9.950;2024-02-26T00:34:56;8.27;;;6.87;;
26040;SDS011;13816;53.628;9.950;2024-02-26T00:37:23;9.37;;;8.03;;
26040;SDS011;13816;53.628;9.950;2024-02-26T00:39:50;8.00;;;6.77;;
26040;SDS011;13816;53.628;9.950;2024-02-26T00:42:19;8.50;;;7.60;;
26040;SDS011;13816;53.628;9.950;2024-02-26T00:44:47;7.93;;;7.10;;
26040;SDS011;13816;53.628;9.950;2024-02-26T00:47:14;9.00;;;7.77;;
26040;SDS011;13816;53.628;9.950;2024-02-26T00:49:42;8.40;;;6.77;;
26040;SDS011;13816;53.628;9.950;2024-02-26T00:52:09;8.70;;;7.53;;
26040;SDS011;13816;53.628;9.950;2024-02-26T00:54:37;9.07;;;7.20;;
26040;SDS011;13816;53.628;9.950;2024-02-26T00:57:04;8.67;;;7.27;;
26040;SDS011;13816;53.628;9.950;2024-02-26T00:59:32;8.20;;;7.27;;
26040;SDS011;13816;53.628;9.950;2024-02-26T01:01:59;9.43;;;8.00;;
26040;SDS011;13816;53.628;9.950;2024-02-26T01:04:28;7.63;;;6.83;;
26040;SDS011;13816;53.628;9.950;2024-02-26T01:06:56;8.60;;;7.70;;
26040;SDS011;13816;53.628;9.950;2024-02-26T01:09:23;9.67;;;7.53;;
26040;SDS011;13816;53.628;9.950;2024-02-26T01:11:51;7.90;;;6.67;;
26040;SDS011;13816;53.628;9.950;2024-02-26T01:14:18;8.40;;;7.40;;
26040;SDS011;13816;53.628;9.950;2024-02-26T01:16:46;9.57;;;6.93;;
26040;SDS011;13816;53.628;9.950;2024-02-26T01:19:13;7.77;;;6.97;;
26040;SDS011;13816;53.628;9.950;2024-02-26T01:21:41;9.93;;;6.30;;
26040;SDS011;13816;53.628;9.950;2024-02-26T01:24:09;6.90;;;6.30;;
26040;SDS011;13816;53.628;9.950;2024-02-26T01:26:37;8.60;;;7.70;;
26040;SDS011;13816;53.628;9.950;2024-02-26T01:29:04;10.90;;;7.80;;
26040;SDS011;13816;53.628;9.950;2024-02-26T01:31:31;8.03;;;7.23;;
26040;SDS011;13816;53.628;9.950;2024-02-26T01:33:59;8.17;;;7.30;;
26040;SDS011;13816;53.628;9.950;2024-02-26T01:36:26;8.10;;;7.30;;
26040;SDS011;13816;53.628;9.950;2024-02-26T01:38:54;7.67;;;6.83;;
26040;SDS011;13816;53.628;9.950;2024-02-26T01:41:22;9.67;;;7.70;;
26040;SDS011;13816;53.628;9.950;2024-02-26T01:43:49;7.53;;;6.80;;
26040;SDS011;13816;53.628;9.950;2024-02-26T01:46:17;8.57;;;7.67;;
26040;SDS011;13816;53.628;9.950;2024-02-26T01:48:45;7.90;;;7.07;;
26040;SDS011;13816;53.628;9.950;2024-02-26T01:51:14;11.27;;;7.90;;
26040;SDS011;13816;53.628;9.950;2024-02-26T01:53:44;10.33;;;7.10;;
26040;SDS011;13816;53.628;9.950;2024-02-26T01:56:13;8.70;;;7.50;;
26040;SDS011;13816;53.628;9.950;2024-02-26T01:58:43;8.13;;;7.33;;
26040;SDS011;13816;53.628;9.950;2024-02-26T02:01:10;7.87;;;7.07;;
26040;SDS011;13816;53.628;9.950;2024-02-26T02:03:39;8.47;;;7.57;;
26040;SDS011;13816;53.628;9.950;2024-02-26T02:06:08;9.30;;;8.33;;
26040;SDS011;13816;53.628;9.950;2024-02-26T02:08:36;9.40;;;7.83;;
26040;SDS011;13816;53.628;9.950;2024-02-26T02:11:04;9.60;;;8.00;;
26040;SDS011;13816;53.628;9.950;2024-02-26T02:13:32;9.80;;;7.90;;
26040;SDS011;13816;53.628;9.950;2024-02-26T02:16:00;8.17;;;7.13;;
26040;SDS011;13816;53.628;9.950;2024-02-26T02:18:28;8.50;;;7.70;;
26040;SDS011;13816;53.628;9.950;2024-02-26T02:20:56;9.80;;;8.33;;
26040;SDS011;13816;53.628;9.950;2024-02-26T02:23:29;10.30;;;8.23;;
26040;SDS011;13816;53.628;9.950;2024-02-26T02:25:57;9.50;;;7.80;;
26040;SDS011;13816;53.628;9.950;2024-02-26T02:28:25;11.03;;;8.57;;
26040;SDS011;13816;53.628;9.950;2024-02-26T02:30:53;9.90;;;8.90;;
26040;SDS011;13816;53.628;9.950;2024-02-26T02:33:21;9.60;;;8.50;;
26040;SDS011;13816;53.628;9.950;2024-02-26T02:35:49;10.70;;;9.27;;
26040;SDS011;13816;53.628;9.950;2024-02-26T02:38:19;10.93;;;8.03;;
26040;SDS011;13816;53.628;9.950;2024-02-26T02:40:47;8.47;;;7.60;;
26040;SDS011;13816;53.628;9.950;2024-02-26T02:43:14;11.40;;;9.03;;
26040;SDS011;13816;53.628;9.950;2024-02-26T02:45:42;9.30;;;8.20;;
26040;SDS011;13816;53.628;9.950;2024-02-26T02:48:13;10.00;;;8.87;;
26040;SDS011;13816;53.628;9.950;2024-02-26T02:50:40;9.80;;;8.20;;
26040;SDS011;13816;53.628;9.950;2024-02-26T02:53:08;10.70;;;7.73;;
26040;SDS011;13816;53.628;9.950;2024-02-26T02:55:36;9.90;;;8.20;;
26040;SDS011;13816;53.628;9.950;2024-02-26T02:58:04;9.63;;;8.33;;
26040;SDS011;13816;53.628;9.950;2024-02-26T03:00:32;11.03;;;8.90;;
26040;SDS011;13816;53.628;9.950;2024-02-26T03:03:03;10.83;;;9.33;;
26040;SDS011;13816;53.628;9.950;2024-02-26T03:05:31;10.10;;;8.80;;
26040;SDS011;13816;53.628;9.950;2024-02-26T03:07:59;10.90;;;8.63;;
26040;SDS011;13816;53.628;9.950;2024-02-26T03:10:26;9.57;;;8.40;;
26040;SDS011;13816;53.628;9.950;2024-02-26T03:12:54;12.13;;;9.47;;
26040;SDS011;13816;53.628;9.950;2024-02-26T03:15:23;11.10;;;9.47;;
26040;SDS011;13816;53.628;9.950;2024-02-26T03:17:50;10.43;;;9.33;;
26040;SDS011;13816;53.628;9.950;2024-02-26T03:20:18;13.23;;;9.47;;
26040;SDS011;13816;53.628;9.950;2024-02-26T03:22:46;11.00;;;9.23;;
26040;SDS011;13816;53.628;9.950;2024-02-26T03:25:13;12.00;;;10.27;;
26040;SDS011;13816;53.628;9.950;2024-02-26T03:27:41;14.20;;;11.40;;
26040;SDS011;13816;53.628;9.950;2024-02-26T03:30:09;11.20;;;9.40;;
26040;SDS011;13816;53.628;9.950;2024-02-26T03:32:37;12.17;;;10.30;;
26040;SDS011;13816;53.628;9.950;2024-02-26T03:35:05;13.17;;;9.87;;
26040;SDS011;13816;53.628;9.950;2024-02-26T03:37:36;12.67;;;10.10;;
26040;SDS011;13816;53.628;9.950;2024-02-26T03:40:03;13.50;;;11.03;;
26040;SDS011;13816;53.628;9.950;2024-02-26T03:42:31;13.10;;;10.57;;
26040;SDS011;13816;53.628;9.950;2024-02-26T03:44:59;11.37;;;10.17;;
26040;SDS011;13816;53.628;9.950;2024-02-26T03:47:26;11.93;;;10.73;;
26040;SDS011;13816;53.628;9.950;2024-02-26T03:49:54;12.57;;;10.40;;
26040;SDS011;13816;53.628;9.950;2024-02-26T03:52:22;12.43;;;11.13;;
26040;SDS011;13816;53.628;9.950;2024-02-26T03:54:49;13.40;;;11.20;;
26040;SDS011;13816;53.628;9.950;2024-02-26T03:57:17;13.10;;;10.70;;
26040;SDS011;13816;53.628;9.950;2024-02-26T03:59:45;13.40;;;10.10;;
26040;SDS011;13816;53.628;9.950;2024-02-26T04:02:12;13.30;;;11.20;;
26040;SDS011;13816;53.628;9.950;2024-02-26T04:04:41;16.50;;;12.20;;
26040;SDS011;13816;53.628;9.950;2024-02-26T04:07:09;12.83;;;10.30;;
26040;SDS011;13816;53.628;9.950;2024-02-26T04:09:38;14.13;;;10.93;;
26040;SDS011;13816;53.628;9.950;2024-02-26T04:12:05;12.70;;;11.10;;
26040;SDS011;13816;53.628;9.950;2024-02-26T04:14:33;12.47;;;10.37;;
26040;SDS011;13816;53.628;9.950;2024-02-26T04:17:00;12.03;;;10.30;;
26040;SDS011;13816;53.628;9.950;2024-02-26T04:19:28;13.60;;;10.97;;
26040;SDS011;13816;53.628;9.950;2024-02-26T04:21:55;12.83;;;11.43;;
26040;SDS011;13816;53.628;9.950;2024-02-26T04:24:23;13.70;;;11.60;;
26040;SDS011;13816;53.628;9.950;2024-02-26T04:26:50;15.97;;;12.43;;
26040;SDS011;13816;53.628;9.950;2024-02-26T04:29:18;14.70;;;11.97;;
26040;SDS011;13816;53.628;9.950;2024-02-26T04:31:45;15.63;;;11.80;;
26040;SDS011;13816;53.628;9.950;2024-02-26T04:34:13;14.30;;;11.00;;
26040;SDS011;13816;53.628;9.950;2024-02-26T04:36:40;15.87;;;11.43;;
26040;SDS011;13816;53.628;9.950;2024-02-26T04:39:09;11.97;;;10.70;;
26040;SDS011;13816;53.628;9.950;2024-02-26T04:41:36;14.53;;;10.83;;
26040;SDS011;13816;53.628;9.950;2024-02-26T04:44:04;14.30;;;11.27;;
26040;SDS011;13816;53.628;9.950;2024-02-26T04:46:31;15.70;;;11.83;;
26040;SDS011;13816;53.628;9.950;2024-02-26T04:48:59;13.23;;;10.83;;
26040;SDS011;13816;53.628;9.950;2024-02-26T04:51:26;15.93;;;11.63;;
26040;SDS011;13816;53.628;9.950;2024-02-26T04:53:54;12.90;;;11.03;;
26040;SDS011;13816;53.628;9.950;2024-02-26T04:56:22;12.57;;;11.27;;
26040;SDS011;13816;53.628;9.950;2024-02-26T04:58:49;16.20;;;11.60;;
26040;SDS011;13816;53.628;9.950;2024-02-26T05:01:16;14.50;;;11.43;;
26040;SDS011;13816;53.628;9.950;2024-02-26T05:03:45;13.40;;;10.73;;
26040;SDS011;13816;53.628;9.950;2024-02-26T05:06:12;12.93;;;11.50;;
26040;SDS011;13816;53.628;9.950;2024-02-26T05:08:40;15.47;;;11.87;;
26040;SDS011;13816;53.628;9.950;2024-02-26T05:11:07;15.80;;;11.10;;
26040;SDS011;13816;53.628;9.950;2024-02-26T05:13:35;15.43;;;11.23;;
26040;SDS011;13816;53.628;9.950;2024-02-26T05:16:02;16.43;;;12.97;;
26040;SDS011;13816;53.628;9.950;2024-02-26T05:18:30;13.20;;;11.07;;
26040;SDS011;13816;53.628;9.950;2024-02-26T05:20:57;13.33;;;10.87;;
26040;SDS011;13816;53.628;9.950;2024-02-26T05:23:26;17.07;;;11.00;;
26040;SDS011;13816;53.628;9.950;2024-02-26T05:25:54;14.63;;;10.43;;
26040;SDS011;13816;53.628;9.950;2024-02-26T05:28:22;12.80;;;10.97;;
26040;SDS011;13816;53.628;9.950;2024-02-26T05:30:49;13.23;;;11.30;;
26040;SDS011;13816;53.628;9.950;2024-02-26T05:33:16;15.97;;;12.00;;
26040;SDS011;13816;53.628;9.950;2024-02-26T05:35:44;16.13;;;11.97;;
26040;SDS011;13816;53.628;9.950;2024-02-26T05:38:12;13.50;;;11.80;;
26040;SDS011;13816;53.628;9.950;2024-02-26T05:40:39;21.33;;;12.60;;
26040;SDS011;13816;53.628;9.950;2024-02-26T05:43:06;16.20;;;12.80;;
26040;SDS011;13816;53.628;9.950;2024-02-26T05:45:34;14.70;;;11.70;;
26040;SDS011;13816;53.628;9.950;2024-02-26T05:48:01;16.40;;;13.10;;
26040;SDS011;13816;53.628;9.950;2024-02-26T05:50:29;14.47;;;11.97;;
26040;SDS011;13816;53.628;9.950;2024-02-26T05:52:57;14.10;;;12.03;;
26040;SDS011;13816;53.628;9.950;2024-02-26T05:55:24;15.67;;;12.80;;
26040;SDS011;13816;53.628;9.950;2024-02-26T05:57:52;16.30;;;11.70;;
26040;SDS011;13816;53.628;9.950;2024-02-26T06:00:22;15.30;;;13.00;;
26040;SDS011;13816;53.628;9.950;2024-02-26T06:02:49;14.37;;;11.93;;
26040;SDS011;13816;53.628;9.950;2024-02-26T06:05:17;15.83;;;12.20;;
26040;SDS011;13816;53.628;9.950;2024-02-26T06:07:44;16.07;;;12.37;;
26040;SDS011;13816;53.628;9.950;2024-02-26T06:10:11;19.33;;;13.27;;
26040;SDS011;13816;53.628;9.950;2024-02-26T06:12:40;17.37;;;12.80;;
26040;SDS011;13816;53.628;9.950;2024-02-26T06:15:08;15.97;;;12.87;;
26040;SDS011;13816;53.628;9.950;2024-02-26T06:17:35;16.93;;;13.40;;
26040;SDS011;13816;53.628;9.950;2024-02-26T06:20:03;17.67;;;13.47;;
26040;SDS011;13816;53.628;9.950;2024-02-26T06:22:32;18.47;;;12.80;;
26040;SDS011;13816;53.628;9.950;2024-02-26T06:25:00;17.17;;;13.50;;
26040;SDS011;13816;53.628;9.950;2024-02-26T06:27:27;18.47;;;14.27;;
26040;SDS011;13816;53.628;9.950;2024-02-26T06:29:55;17.80;;;15.20;;
26040;SDS011;13816;53.628;9.950;2024-02-26T06:32:23;21.03;;;16.27;;
26040;SDS011;13816;53.628;9.950;2024-02-26T06:34:50;17.00;;;14.03;;
26040;SDS011;13816;53.628;9.950;2024-02-26T06:37:18;20.50;;;14.87;;
26040;SDS011;13816;53.628;9.950;2024-02-26T06:39:45;20.63;;;16.30;;
26040;SDS011;13816;53.628;9.950;2024-02-26T06:42:13;23.77;;;17.17;;
26040;SDS011;13816;53.628;9.950;2024-02-26T06:44:40;26.90;;;15.43;;
26040;SDS011;13816;53.628;9.950;2024-02-26T06:47:08;22.10;;;14.73;;
26040;SDS011;13816;53.628;9.950;2024-02-26T06:49:35;27.00;;;17.53;;
26040;SDS011;13816;53.628;9.950;2024-02-26T06:52:03;25.10;;;18.00;;
26040;SDS011;13816;53.628;9.950;2024-02-26T06:54:31;27.40;;;19.00;;
26040;SDS011;13816;53.628;9.950;2024-02-26T06:56:59;30.10;;;20.57;;
26040;SDS011;13816;53.628;9.950;2024-02-26T06:59:26;30.00;;;21.17;;
26040;SDS011;13816;53.628;9.950;2024-02-26T07:01:54;32.47;;;21.87;;
26040;SDS011;13816;53.628;9.950;2024-02-26T07:04:21;35.20;;;21.80;;
26040;SDS011;13816;53.628;9.950;2024-02-26T07:06:49;39.33;;;23.70;;
26040;SDS011;13816;53.628;9.950;2024-02-26T07:09:16;37.03;;;22.50;;
26040;SDS011;13816;53.628;9.950;2024-02-26T07:11:44;36.10;;;21.87;;
26040;SDS011;13816;53.628;9.950;2024-02-26T07:14:12;38.17;;;22.13;;
26040;SDS011;13816;53.628;9.950;2024-02-26T07:16:39;31.83;;;20.70;;
26040;SDS011;13816;53.628;9.950;2024-02-26T07:19:06;39.63;;;23.30;;
26040;SDS011;13816;53.628;9.950;2024-02-26T07:21:34;39.93;;;20.93;;
26040;SDS011;13816;53.628;9.950;2024-02-26T07:24:01;31.07;;;20.10;;
26040;SDS011;13816;53.628;9.950;2024-02-26T07:26:29;31.03;;;20.97;;
26040;SDS011;13816;53.628;9.950;2024-02-26T07:28:57;34.20;;;22.27;;
26040;SDS011;13816;53.628;9.950;2024-02-26T07:31:24;33.80;;;21.20;;
26040;SDS011;13816;53.628;9.950;2024-02-26T07:33:52;33.97;;;21.77;;
26040;SDS011;13816;53.628;9.950;2024-02-26T07:54:11;34.90;;;21.00;;
26040;SDS011;13816;53.628;9.950;2024-02-26T07:56:39;35.13;;;22.70;;
26040;SDS011;13816;53.628;9.950;2024-02-26T07:59:06;40.60;;;24.10;;
26040;SDS011;13816;53.628;9.950;2024-02-26T08:01:34;34.20;;;22.50;;
26040;SDS011;13816;53.628;9.950;2024-02-26T08:04:01;40.40;;;23.47;;
26040;SDS011;13816;53.628;9.950;2024-02-26T08:06:29;37.60;;;24.00;;
26040;SDS011;13816;53.628;9.950;2024-02-26T08:08:59;40.17;;;22.23;;
26040;SDS011;13816;53.628;9.950;2024-02-26T08:11:26;33.80;;;22.80;;
26040;SDS011;13816;53.628;9.950;2024-02-26T08:13:54;40.77;;;24.37;;
26040;SDS011;13816;53.628;9.950;2024-02-26T08:16:21;41.20;;;23.10;;
26040;SDS011;13816;53.628;9.950;2024-02-26T08:18:49;37.73;;;23.60;;
26040;SDS011;13816;53.628;9.950;2024-02-26T08:21:16;48.23;;;24.83;;
26040;SDS011;13816;53.628;9.950;2024-02-26T08:23:44;38.20;;;22.83;;
26040;SDS011;13816;53.628;9.950;2024-02-26T08:26:11;38.90;;;23.30;;
26040;SDS011;13816;53.628;9.950;2024-02-26T08:28:39;43.43;;;25.37;;
26040;SDS011;13816;53.628;9.950;2024-02-26T08:31:06;43.83;;;24.30;;
26040;SDS011;13816;53.628;9.950;2024-02-26T08:33:34;35.10;;;22.83;;
26040;SDS011;13816;53.628;9.950;2024-02-26T08:36:05;37.40;;;22.60;;
26040;SDS011;13816;53.628;9.950;2024-02-26T08:38:33;43.43;;;25.10;;
26040;SDS011;13816;53.628;9.950;2024-02-26T08:41:02;35.90;;;21.43;;
26040;SDS011;13816;53.628;9.950;2024-02-26T08:43:29;47.67;;;23.70;;
26040;SDS011;13816;53.628;9.950;2024-02-26T08:45:57;42.90;;;22.57;;
26040;SDS011;13816;53.628;9.950;2024-02-26T08:48:24;35.37;;;21.50;;
26040;SDS011;13816;53.628;9.950;2024-02-26T08:50:52;35.80;;;21.73;;
26040;SDS011;13816;53.628;9.950;2024-02-26T08:53:20;38.30;;;21.73;;
26040;SDS011;13816;53.628;9.950;2024-02-26T08:55:50;37.03;;;22.00;;
26040;SDS011;13816;53.628;9.950;2024-02-26T08:58:17;35.70;;;21.20;;
26040;SDS011;13816;53.628;9.950;2024-02-26T09:00:46;35.60;;;21.57;;
26040;SDS011;13816;53.628;9.950;2024-02-26T09:03:14;39.03;;;21.90;;
26040;SDS011;13816;53.628;9.950;2024-02-26T09:05:42;33.97;;;20.97;;
26040;SDS011;13816;53.628;9.950;2024-02-26T09:08:09;30.30;;;19.00;;
26040;SDS011;13816;53.628;9.950;2024-02-26T09:10:37;36.80;;;20.70;;
26040;SDS011;13816;53.628;9.950;2024-02-26T09:13:05;35.40;;;20.57;;
26040;SDS011;13816;53.628;9.950;2024-02-26T09:15:32;31.97;;;19.10;;
26040;SDS011;13816;53.628;9.950;2024-02-26T09:18:00;31.80;;;20.63;;
26040;SDS011;13816;53.628;9.950;2024-02-26T09:20:29;29.07;;;19.77;;
26040;SDS011;13816;53.628;9.950;2024-02-26T09:22:57;34.70;;;21.20;;
26040;SDS011;13816;53.628;9.950;2024-02-26T09:25:24;28.37;;;19.43;;
26040;SDS011;13816;53.628;9.950;2024-02-26T09:27:52;28.80;;;19.17;;
26040;SDS011;13816;53.628;9.950;2024-02-26T09:30:19;29.70;;;19.53;;
26040;SDS011;13816;53.628;9.950;2024-02-26T09:32:47;30.63;;;20.20;;
26040;SDS011;13816;53.628;9.950;2024-02-26T09:35:14;29.07;;;20.80;;
26040;SDS011;13816;53.628;9.950;2024-02-26T09:37:42;29.47;;;19.87;;
26040;SDS011;13816;53.628;9.950;2024-02-26T09:40:10;30.47;;;20.20;;
26040;SDS011;13816;53.628;9.950;2024-02-26T09:42:41;30.57;;;19.80;;
26040;SDS011;13816;53.628;9.950;2024-02-26T09:45:11;28.60;;;18.90;;
26040;SDS011;13816;53.628;9.950;2024-02-26T09:47:40;31.90;;;20.53;;
26040;SDS011;13816;53.628;9.950;2024-02-26T09:50:08;32.03;;;21.80;;
26040;SDS011;13816;53.628;9.950;2024-02-26T09:52:38;32.03;;;21.07;;
26040;SDS011;13816;53.628;9.950;2024-02-26T09:55:07;32.23;;;19.80;;
26040;SDS011;13816;53.628;9.950;2024-02-26T09:57:36;31.90;;;19.40;;
26040;SDS011;13816;53.628;9.950;2024-02-26T10:00:04;32.77;;;20.93;;
26040;SDS011;13816;53.628;9.950;2024-02-26T10:02:35;31.67;;;18.83;;
26040;SDS011;13816;53.628;9.950;2024-02-26T10:05:03;30.57;;;19.73;;
26040;SDS011;13816;53.628;9.950;2024-02-26T10:07:32;32.03;;;19.53;;
26040;SDS011;13816;53.628;9.950;2024-02-26T10:09:59;31.50;;;20.37;;
26040;SDS011;13816;53.628;9.950;2024-02-26T10:12:27;34.57;;;20.30;;
26040;SDS011;13816;53.628;9.950;2024-02-26T10:14:55;27.30;;;17.53;;
26040;SDS011;13816;53.628;9.950;2024-02-26T10:17:23;33.00;;;19.53;;
26040;SDS011;13816;53.628;9.950;2024-02-26T10:19:51;28.97;;;19.17;;
26040;SDS011;13816;53.628;9.950;2024-02-26T10:22:22;30.03;;;19.03;;
26040;SDS011;13816;53.628;9.950;2024-02-26T10:24:49;27.00;;;17.57;;
26040;SDS011;13816;53.628;9.950;2024-02-26T10:27:17;30.23;;;18.40;;
26040;SDS011;13816;53.628;9.950;2024-02-26T10:29:46;27.53;;;18.40;;
26040;SDS011;13816;53.628;9.950;2024-02-26T10:32:13;27.53;;;18.33;;
26040;SDS011;13816;53.628;9.950;2024-02-26T10:34:41;27.67;;;18.77;;
26040;SDS011;13816;53.628;9.950;2024-02-26T10:37:09;34.13;;;19.67;;
26040;SDS011;13816;53.628;9.950;2024-02-26T10:39:36;27.97;;;19.00;;
26040;SDS011;13816;53.628;9.950;2024-02-26T10:42:05;27.80;;;17.83;;
26040;SDS011;13816;53.628;9.950;2024-02-26T10:44:36;25.53;;;17.80;;
26040;SDS011;13816;53.628;9.950;2024-02-26T10:47:04;27.47;;;18.47;;
26040;SDS011;13816;53.628;9.950;2024-02-26T10:49:32;26.70;;;17.30;;
26040;SDS011;13816;53.628;9.950;2024-02-26T10:52:01;25.00;;;16.23;;
26040;SDS011;13816;53.628;9.950;2024-02-26T10:54:30;28.13;;;18.27;;
26040;SDS011;13816;53.628;9.950;2024-02-26T10:56:59;23.73;;;16.97;;
26040;SDS011;13816;53.628;9.950;2024-02-26T10:59:27;24.07;;;17.40;;
26040;SDS011;13816;53.628;9.950;2024-02-26T11:01:55;26.63;;;17.43;;
26040;SDS011;13816;53.628;9.950;2024-02-26T11:04:23;25.70;;;16.57;;
26040;SDS011;13816;53.628;9.950;2024-02-26T11:06:51;24.60;;;17.10;;
26040;SDS011;13816;53.628;9.950;2024-02-26T11:09:22;22.50;;;16.17;;
26040;SDS011;13816;53.628;9.950;2024-02-26T11:11:50;27.80;;;19.23;;
26040;SDS011;13816;53.628;9.950;2024-02-26T11:14:21;21.90;;;17.00;;
26040;SDS011;13816;53.628;9.950;2024-02-26T11:16:48;25.60;;;18.10;;
26040;SDS011;13816;53.628;9.950;2024-02-26T11:19:16;25.13;;;17.93;;
26040;SDS011;13816;53.628;9.950;2024-02-26T11:21:45;22.37;;;17.07;;
26040;SDS011;13816;53.628;9.950;2024-02-26T11:24:14;28.13;;;18.70;;
26040;SDS011;13816;53.628;9.950;2024-02-26T11:26:52;22.47;;;15.97;;
26040;SDS011;13816;53.628;9.950;2024-02-26T11:29:41;27.03;;;17.30;;
26040;SDS011;13816;53.628;9.950;2024-02-26T11:32:10;26.07;;;16.83;;
26040;SDS011;13816;53.628;9.950;2024-02-26T11:34:38;21.03;;;16.17;;
26040;SDS011;13816;53.628;9.950;2024-02-26T11:37:10;20.80;;;16.17;;
26040;SDS011;13816;53.628;9.950;2024-02-26T11:39:39;20.47;;;16.07;;
26040;SDS011;13816;53.628;9.950;2024-02-26T11:42:07;19.83;;;14.73;;
26040;SDS011;13816;53.628;9.950;2024-02-26T11:44:35;18.57;;;15.10;;
26040;SDS011;13816;53.628;9.950;2024-02-26T11:47:09;23.60;;;14.97;;
26040;SDS011;13816;53.628;9.950;2024-02-26T11:49:37;20.37;;;15.60;;
26040;SDS011;13816;53.628;9.950;2024-02-26T11:52:06;16.17;;;13.07;;
26040;SDS011;13816;53.628;9.950;2024-02-26T11:54:44;16.97;;;13.83;;
26040;SDS011;13816;53.628;9.950;2024-02-26T11:57:27;17.67;;;14.60;;
26040;SDS011;13816;53.628;9.950;2024-02-26T12:07:47;21.67;;;15.87;;
26040;SDS011;13816;53.628;9.950;2024-02-26T12:12:42;22.93;;;16.87;;
26040;SDS011;13816;53.628;9.950;2024-02-26T12:15:09;20.87;;;16.33;;
26040;SDS011;13816;53.628;9.950;2024-02-26T12:17:38;22.63;;;17.20;;
26040;SDS011;13816;53.628;9.950;2024-02-26T12:20:11;20.17;;;16.33;;
26040;SDS011;13816;53.628;9.950;2024-02-26T12:22:40;22.77;;;17.57;;
26040;SDS011;13816;53.628;9.950;2024-02-26T12:25:09;23.80;;;16.83;;
26040;SDS011;13816;53.628;9.950;2024-02-26T12:27:36;24.60;;;16.10;;
26040;SDS011;13816;53.628;9.950;2024-02-26T12:30:04;22.03;;;16.20;;
26040;SDS011;13816;53.628;9.950;2024-02-26T12:32:32;22.63;;;17.13;;
26040;SDS011;13816;53.628;9.950;2024-02-26T12:35:00;21.17;;;16.30;;
26040;SDS011;13816;53.628;9.950;2024-02-26T12:37:27;20.10;;;15.40;;
26040;SDS011;13816;53.628;9.950;2024-02-26T12:39:55;20.03;;;15.57;;
26040;SDS011;13816;53.628;9.950;2024-02-26T12:42:23;19.30;;;15.20;;
26040;SDS011;13816;53.628;9.950;2024-02-26T12:44:51;22.53;;;16.73;;
26040;SDS011;13816;53.628;9.950;2024-02-26T12:47:19;21.03;;;15.17;;
26040;SDS011;13816;53.628;9.950;2024-02-26T12:49:47;22.30;;;15.83;;
26040;SDS011;13816;53.628;9.950;2024-02-26T12:52:16;24.73;;;15.27;;
26040;SDS011;13816;53.628;9.950;2024-02-26T12:54:44;18.73;;;15.53;;
26040;SDS011;13816;53.628;9.950;2024-02-26T12:57:11;20.33;;;15.03;;
26040;SDS011;13816;53.628;9.950;2024-02-26T12:59:39;21.20;;;15.37;;
26040;SDS011;13816;53.628;9.950;2024-02-26T13:02:09;20.63;;;14.97;;
26040;SDS011;13816;53.628;9.950;2024-02-26T13:04:37;20.63;;;15.20;;
26040;SDS011;13816;53.628;9.950;2024-02-26T13:07:05;20.43;;;15.57;;
26040;SDS011;13816;53.628;9.950;2024-02-26T13:09:33;21.23;;;13.70;;
26040;SDS011;13816;53.628;9.950;2024-02-26T13:12:04;20.70;;;14.23;;
26040;SDS011;13816;53.628;9.950;2024-02-26T13:14:32;20.70;;;15.10;;
26040;SDS011;13816;53.628;9.950;2024-02-26T13:17:03;18.50;;;13.43;;
26040;SDS011;13816;53.628;9.950;2024-02-26T13:19:31;22.83;;;14.53;;
26040;SDS011;13816;53.628;9.950;2024-02-26T13:22:05;19.40;;;13.17;;
26040;SDS011;13816;53.628;9.950;2024-02-26T13:24:34;19.17;;;14.47;;
26040;SDS011;13816;53.628;9.950;2024-02-26T13:27:01;20.67;;;15.67;;
26040;SDS011;13816;53.628;9.950;2024-02-26T13:29:31;20.60;;;14.50;;
26040;SDS011;13816;53.628;9.950;2024-02-26T13:31:59;21.43;;;15.53;;
26040;SDS011;13816;53.628;9.950;2024-02-26T13:34:27;21.00;;;16.20;;
26040;SDS011;13816;53.628;9.950;2024-02-26T13:36:56;24.70;;;16.57;;
26040;SDS011;13816;53.628;9.950;2024-02-26T13:39:24;18.80;;;14.83;;
26040;SDS011;13816;53.628;9.950;2024-02-26T13:41:52;22.00;;;16.23;;
26040;SDS011;13816;53.628;9.950;2024-02-26T13:44:20;21.47;;;15.70;;
26040;SDS011;13816;53.628;9.950;2024-02-26T13:46:48;20.90;;;15.50;;
26040;SDS011;13816;53.628;9.950;2024-02-26T13:49:16;23.70;;;15.60;;
26040;SDS011;13816;53.628;9.950;2024-02-26T13:51:44;20.43;;;14.80;;
26040;SDS011;13816;53.628;9.950;2024-02-26T13:54:11;23.60;;;14.83;;
26040;SDS011;13816;53.628;9.950;2024-02-26T13:56:41;19.70;;;14.87;;
26040;SDS011;13816;53.628;9.950;2024-02-26T13:59:11;17.60;;;14.00;;
26040;SDS011;13816;53.628;9.950;2024-02-26T14:01:42;18.10;;;13.97;;
26040;SDS011;13816;53.628;9.950;2024-02-26T14:04:10;19.33;;;14.63;;
26040;SDS011;13816;53.628;9.950;2024-02-26T14:06:38;20.40;;;16.00;;
26040;SDS011;13816;53.628;9.950;2024-02-26T14:09:06;19.73;;;14.27;;
26040;SDS011;13816;53.628;9.950;2024-02-26T14:11:37;17.83;;;14.30;;
26040;SDS011;13816;53.628;9.950;2024-02-26T14:14:13;17.50;;;13.60;;
26040;SDS011;13816;53.628;9.950;2024-02-26T14:17:08;21.60;;;13.67;;
26040;SDS011;13816;53.628;9.950;2024-02-26T14:19:38;19.73;;;15.00;;
26040;SDS011;13816;53.628;9.950;2024-02-26T14:22:13;19.70;;;14.47;;
26040;SDS011;13816;53.628;9.950;2024-02-26T14:25:05;18.50;;;14.93;;
26040;SDS011;13816;53.628;9.950;2024-02-26T14:31:36;19.53;;;15.07;;
26040;SDS011;13816;53.628;9.950;2024-02-26T14:34:05;19.93;;;13.90;;
26040;SDS011;13816;53.628;9.950;2024-02-26T14:40:16;19.60;;;16.33;;
26040;SDS011;13816;53.628;9.950;2024-02-26T14:42:44;19.40;;;15.53;;
26040;SDS011;13816;53.628;9.950;2024-02-26T14:45:12;17.73;;;15.43;;
26040;SDS011;13816;53.628;9.950;2024-02-26T14:47:43;17.67;;;15.10;;
26040;SDS011;13816;53.628;9.950;2024-02-26T14:50:11;20.27;;;16.37;;
26040;SDS011;13816;53.628;9.950;2024-02-26T14:52:38;17.80;;;14.90;;
26040;SDS011;13816;53.628;9.950;2024-02-26T14:55:06;18.57;;;15.33;;
26040;SDS011;13816;53.628;9.950;2024-02-26T14:57:34;21.67;;;16.20;;
26040;SDS011;13816;53.628;9.950;2024-02-26T15:03:46;19.60;;;16.27;;
26040;SDS011;13816;53.628;9.950;2024-02-26T15:06:25;18.50;;;15.03;;
26040;SDS011;13816;53.628;9.950;2024-02-26T15:08:59;24.17;;;16.33;;
26040;SDS011;13816;53.628;9.950;2024-02-26T15:11:27;23.60;;;16.10;;